KPRC/PRC METAR and TAF weather

Enter ICAO airport designator
Station Type Date Time Source
KPRC METAR 2019/10/23 06:53 UTC NOAA

KPRC 230653Z AUTO 21004KT 10SM CLR 09/M03 A3018 RMK AO2 SLP162 T00941028 402500039


Station Type Date Time Source
KPRC Decoded METAR 2019/10/23 06:53 UTC NOAA

PRESCOTT LOVE FIELD, AZ, United States (KPRC) 34-39N 112-25W 1524M
Oct 23, 2019 - 02:53 AM EDT / 2019.10.23 0653 UTC
Wind: from the SSW (210 degrees) at 5 MPH (4 KT):0
Visibility: 10 mile(s):0
Sky conditions: clear
Temperature: 48.9 F (9.4 C)
Dew Point: 27.0 F (-2.8 C)
Relative Humidity: 42%
Pressure (altimeter): 30.18 in. Hg (1022 hPa)
ob: KPRC 230653Z AUTO 21004KT 10SM CLR 09/M03 A3018 RMK AO2 SLP162 T00941028 402500039
cycle: 7

Station Type Date Time Source
KPRC TAF 2019/10/23 06:30 UTC NOAA

TAF KPRC 230527Z 2306/2406 20006KT P6SM SKC
FM231900 34009KT P6SM SCT200
FM240100 27009KT P6SM SKC

Example: see airport list